createdAt,value
2019-04-21T00:00:29.741Z,10.70
2019-04-21T00:01:37.639Z,9.45
2019-04-21T00:02:44.119Z,9.65
2019-04-21T00:03:52.150Z,10.50
2019-04-21T00:05:06.211Z,9.95
2019-04-21T00:06:19.814Z,10.60
2019-04-21T00:07:29.065Z,9.63
2019-04-21T00:09:41.035Z,10.78
2019-04-21T00:10:42.631Z,10.82
2019-04-21T00:11:47.203Z,10.67
2019-04-21T00:12:51.992Z,10.35
2019-04-21T00:13:52.610Z,11.20
2019-04-21T00:14:58.709Z,10.70
2019-04-21T00:15:55.021Z,10.97
2019-04-21T00:17:05.314Z,10.43
2019-04-21T00:18:14.402Z,10.10
2019-04-21T00:19:29.961Z,10.70
2019-04-21T00:20:39.620Z,12.03
2019-04-21T00:21:45.828Z,10.67
2019-04-21T00:22:58.790Z,10.63
2019-04-21T00:24:23.953Z,11.10
2019-04-21T00:25:32.229Z,10.77
2019-04-21T00:26:40.208Z,10.73
2019-04-21T00:27:44.252Z,10.60
2019-04-21T00:29:01.748Z,11.47
2019-04-21T00:29:58.046Z,11.30
2019-04-21T00:31:06.538Z,11.13
2019-04-21T00:32:06.812Z,10.40
2019-04-21T00:33:08.121Z,11.60
2019-04-21T00:34:04.802Z,11.40
2019-04-21T00:35:14.183Z,11.77
2019-04-21T00:36:22.661Z,10.57
2019-04-21T00:37:41.205Z,11.70
2019-04-21T00:38:59.142Z,10.93
2019-04-21T00:40:02.303Z,11.30
2019-04-21T00:41:01.743Z,10.70
2019-04-21T00:42:05.148Z,11.17
2019-04-21T00:43:13.571Z,10.73
2019-04-21T00:44:12.605Z,11.47
2019-04-21T00:45:20.793Z,10.67
2019-04-21T00:46:26.379Z,11.27
2019-04-21T00:47:34.076Z,11.97
2019-04-21T00:48:41.160Z,12.43
2019-04-21T00:49:52.708Z,11.80
2019-04-21T00:51:15.061Z,12.07
2019-04-21T00:54:02.744Z,11.90
2019-04-21T00:55:14.220Z,11.63
2019-04-21T00:56:13.197Z,11.97
2019-04-21T00:57:25.207Z,11.93
2019-04-21T00:58:30.404Z,10.80
2019-04-21T00:59:34.958Z,12.23
2019-04-21T01:00:42.241Z,11.57
2019-04-21T01:01:49.391Z,11.13
2019-04-21T01:02:57.991Z,11.07
2019-04-21T01:04:15.339Z,12.13
2019-04-21T01:05:26.970Z,11.17
2019-04-21T01:06:28.703Z,11.57
2019-04-21T01:07:36.077Z,11.60
2019-04-21T01:08:42.879Z,11.20
2019-04-21T01:09:42.306Z,12.17
2019-04-21T01:10:49.243Z,11.67
2019-04-21T01:12:05.140Z,13.30
2019-04-21T01:13:10.002Z,11.17
2019-04-21T01:14:20.070Z,12.40
2019-04-21T01:16:34.575Z,12.73
2019-04-21T01:17:35.678Z,10.93
2019-04-21T01:18:38.155Z,10.93
2019-04-21T01:19:47.041Z,11.20
2019-04-21T01:20:32.091Z,11.80
2019-04-21T01:21:36.461Z,11.33
2019-04-21T01:22:42.300Z,11.27
2019-04-21T01:23:46.688Z,12.07
2019-04-21T01:25:03.251Z,11.87
2019-04-21T01:26:13.714Z,11.10
2019-04-21T01:27:41.762Z,11.53
2019-04-21T01:29:05.407Z,11.87
2019-04-21T01:36:41.542Z,11.90
2019-04-21T01:43:03.689Z,12.07
2019-04-21T01:46:11.215Z,11.93
2019-04-21T01:47:31.373Z,12.27
2019-04-21T01:54:25.155Z,11.97
2019-04-21T01:56:08.093Z,10.80
2019-04-21T01:57:47.126Z,11.60
2019-04-21T01:59:03.444Z,11.93
2019-04-21T02:00:56.815Z,11.70
2019-04-21T02:02:24.217Z,11.70
2019-04-21T02:05:39.254Z,12.07
2019-04-21T02:07:01.004Z,12.67
2019-04-21T02:08:23.188Z,11.50
2019-04-21T02:11:32.794Z,12.37
2019-04-21T02:17:26.467Z,12.60
2019-04-21T02:22:10.782Z,12.67
2019-04-21T02:25:08.600Z,11.77
2019-04-21T02:26:32.419Z,12.30
2019-04-21T02:27:57.588Z,12.17
2019-04-21T02:34:47.097Z,12.50
2019-04-21T02:40:33.570Z,12.70
2019-04-21T02:49:37.709Z,11.70
2019-04-21T02:50:53.502Z,12.77
2019-04-21T02:54:28.586Z,12.33
2019-04-21T02:55:11.571Z,11.83
2019-04-21T02:56:34.446Z,13.13
2019-04-21T02:57:49.423Z,13.10
2019-04-21T03:01:07.018Z,11.67
2019-04-21T03:06:00.370Z,12.43
2019-04-21T03:07:34.776Z,11.93
2019-04-21T03:10:26.694Z,11.83
2019-04-21T03:11:17.322Z,12.47
2019-04-21T03:12:38.524Z,12.10
2019-04-21T03:14:08.951Z,11.53
2019-04-21T03:15:23.538Z,12.13
2019-04-21T03:16:47.088Z,12.13
2019-04-21T03:17:57.517Z,11.97
2019-04-21T03:19:17.624Z,12.10
2019-04-21T03:20:35.331Z,12.03
2019-04-21T03:21:38.872Z,12.47
2019-04-21T03:27:54.685Z,11.97
2019-04-21T03:36:43.832Z,12.20
2019-04-21T03:37:49.731Z,13.70
2019-04-21T03:40:32.933Z,13.40
2019-04-21T03:48:53.412Z,11.93
2019-04-21T03:59:07.399Z,12.83
2019-04-21T04:02:34.398Z,13.30
2019-04-21T04:04:11.005Z,13.00
2019-04-21T04:07:44.036Z,13.97
2019-04-21T04:10:43.013Z,13.77
2019-04-21T04:11:50.537Z,14.70
2019-04-21T04:13:07.285Z,13.67
2019-04-21T04:15:49.048Z,13.63
2019-04-21T04:18:36.062Z,14.17
2019-04-21T04:19:40.332Z,14.13
2019-04-21T04:21:04.461Z,13.97
2019-04-21T04:22:27.070Z,14.37
2019-04-21T04:23:41.523Z,14.07
2019-04-21T04:29:03.926Z,14.40
2019-04-21T04:30:07.574Z,14.17
2019-04-21T04:32:34.686Z,14.03
2019-04-21T04:35:25.931Z,14.53
2019-04-21T04:39:45.983Z,13.33
2019-04-21T04:44:42.272Z,14.10
2019-04-21T04:48:24.194Z,14.80
2019-04-21T04:50:53.145Z,13.87
2019-04-21T04:52:19.269Z,13.70
2019-04-21T04:56:07.683Z,15.03
2019-04-21T04:57:22.227Z,14.33
2019-04-21T04:59:18.635Z,14.00
2019-04-21T05:00:01.744Z,13.67
2019-04-21T05:01:23.189Z,13.00
2019-04-21T05:02:35.574Z,14.10
2019-04-21T05:03:49.255Z,14.20
2019-04-21T05:05:15.683Z,14.80
2019-04-21T05:09:15.337Z,13.03
2019-04-21T05:10:22.691Z,13.40
2019-04-21T05:11:46.389Z,13.77
2019-04-21T05:12:51.227Z,14.70
2019-04-21T05:15:42.127Z,13.43
2019-04-21T05:18:05.496Z,13.78
2019-04-21T05:20:41.601Z,14.90
2019-04-21T05:21:56.481Z,13.28
2019-04-21T05:23:14.366Z,14.50
2019-04-21T05:24:24.010Z,13.43
2019-04-21T05:25:41.542Z,16.97
2019-04-21T05:26:59.444Z,14.23
2019-04-21T05:28:11.545Z,14.95
2019-04-21T05:29:49.244Z,13.88
2019-04-21T05:31:27.531Z,14.83
2019-04-21T05:32:59.962Z,15.55
2019-04-21T05:34:18.959Z,14.70
2019-04-21T05:35:56.153Z,14.40
2019-04-21T05:37:33.260Z,14.45
2019-04-21T05:39:07.512Z,13.90
2019-04-21T05:40:24.899Z,13.68
2019-04-21T05:41:38.597Z,14.40
2019-04-21T05:43:03.329Z,14.07
2019-04-21T05:44:32.671Z,13.35
2019-04-21T05:45:40.976Z,14.50
2019-04-21T05:48:52.124Z,13.53
2019-04-21T05:50:11.546Z,13.98
2019-04-21T05:51:25.775Z,13.88
2019-04-21T05:52:50.390Z,13.93
2019-04-21T05:54:22.924Z,13.28
2019-04-21T05:55:42.686Z,15.00
2019-04-21T05:56:49.843Z,14.45
2019-04-21T05:58:09.715Z,14.38
2019-04-21T05:59:21.455Z,14.45
2019-04-21T06:01:02.044Z,13.15
2019-04-21T06:02:16.584Z,13.62
2019-04-21T06:03:24.002Z,14.70
2019-04-21T06:05:02.646Z,14.35
2019-04-21T06:06:00.341Z,15.00
2019-04-21T06:07:21.540Z,15.35
2019-04-21T06:08:31.431Z,14.13
2019-04-21T06:11:10.427Z,14.45
2019-04-21T06:12:29.783Z,14.90
2019-04-21T06:13:48.447Z,15.10
2019-04-21T06:15:01.049Z,13.83
2019-04-21T06:16:25.181Z,14.50
2019-04-21T06:21:57.207Z,14.00
2019-04-21T06:23:21.333Z,14.30
2019-04-21T06:24:50.990Z,15.25
2019-04-21T06:27:16.277Z,14.60
2019-04-21T06:28:38.077Z,15.05
2019-04-21T06:29:50.195Z,15.85
2019-04-21T06:31:14.590Z,14.83
2019-04-21T06:32:46.851Z,15.70
2019-04-21T06:33:44.922Z,15.30
2019-04-21T06:35:30.864Z,14.35
2019-04-21T06:37:56.550Z,16.70
2019-04-21T06:39:18.183Z,15.30
2019-04-21T06:40:35.774Z,14.80
2019-04-21T06:41:46.207Z,14.68
2019-04-21T06:43:17.956Z,15.28
2019-04-21T06:44:33.598Z,15.50
2019-04-21T06:45:51.104Z,15.95
2019-04-21T06:47:06.346Z,15.65
2019-04-21T06:48:24.939Z,14.73
2019-04-21T06:49:36.941Z,15.25
2019-04-21T06:51:04.968Z,15.53
2019-04-21T06:52:29.958Z,15.32
2019-04-21T06:53:38.065Z,16.37
2019-04-21T06:54:56.085Z,15.60
2019-04-21T06:56:15.644Z,15.65
2019-04-21T06:57:29.499Z,14.50
2019-04-21T06:58:43.801Z,15.38
2019-04-21T07:00:04.341Z,15.30
2019-04-21T07:01:26.468Z,15.40
2019-04-21T07:04:08.058Z,14.18
2019-04-21T07:05:13.254Z,14.70
2019-04-21T07:06:38.657Z,14.30
2019-04-21T07:07:57.683Z,14.65
2019-04-21T07:09:15.866Z,15.20
2019-04-21T07:10:30.492Z,15.15
2019-04-21T07:11:36.743Z,14.47
2019-04-21T07:13:00.487Z,14.07
2019-04-21T07:15:37.044Z,14.35
2019-04-21T07:16:59.653Z,14.53
2019-04-21T07:18:10.950Z,14.20
2019-04-21T07:19:35.994Z,13.95
2019-04-21T07:20:50.486Z,14.15
2019-04-21T07:22:15.901Z,13.03
2019-04-21T07:23:25.286Z,14.28
2019-04-21T07:24:46.262Z,14.18
2019-04-21T07:26:05.825Z,13.78
2019-04-21T07:27:27.271Z,13.35
2019-04-21T07:28:25.393Z,13.48
2019-04-21T07:29:34.459Z,14.53
2019-04-21T07:30:38.019Z,13.83
2019-04-21T07:31:47.365Z,13.38
2019-04-21T07:32:58.021Z,13.78
2019-04-21T07:33:57.605Z,13.62
2019-04-21T07:35:03.923Z,13.40
2019-04-21T07:36:11.406Z,12.85
2019-04-21T07:37:12.203Z,13.58
2019-04-21T07:38:19.455Z,13.90
2019-04-21T07:39:27.070Z,13.58
2019-04-21T07:40:28.625Z,13.98
2019-04-21T07:41:40.988Z,13.83
2019-04-21T07:42:46.965Z,13.65
2019-04-21T07:43:55.289Z,13.20
2019-04-21T07:45:00.674Z,13.80
2019-04-21T07:46:07.807Z,13.53
2019-04-21T07:47:23.518Z,13.25
2019-04-21T07:48:37.719Z,13.78
2019-04-21T07:49:57.411Z,14.05
2019-04-21T07:51:20.707Z,14.43
2019-04-21T07:52:33.571Z,13.18
2019-04-21T07:53:40.666Z,13.18
2019-04-21T07:54:55.485Z,14.13
2019-04-21T07:56:37.121Z,13.43
2019-04-21T07:57:56.179Z,12.85
2019-04-21T07:59:03.836Z,13.50
2019-04-21T08:00:25.102Z,13.25
2019-04-21T08:01:18.421Z,13.20
2019-04-21T08:02:28.158Z,13.45
2019-04-21T08:03:33.651Z,13.30
2019-04-21T08:04:54.427Z,13.03
2019-04-21T08:05:45.808Z,12.25
2019-04-21T08:06:52.071Z,12.47
2019-04-21T08:08:59.402Z,13.45
2019-04-21T08:10:06.339Z,12.88
2019-04-21T08:11:16.695Z,13.03
2019-04-21T08:12:20.024Z,13.72
2019-04-21T08:13:34.530Z,12.03
2019-04-21T08:14:35.666Z,13.68
2019-04-21T08:15:44.234Z,13.15
2019-04-21T08:16:54.016Z,13.18
2019-04-21T08:17:58.192Z,12.55
2019-04-21T08:19:11.429Z,14.25
2019-04-21T08:20:07.438Z,13.48
2019-04-21T08:21:11.217Z,13.58
2019-04-21T08:22:43.180Z,13.22
2019-04-21T08:23:25.400Z,12.10
2019-04-21T08:24:34.741Z,13.20
2019-04-21T08:25:46.097Z,12.98
2019-04-21T08:26:46.955Z,12.90
2019-04-21T08:29:07.792Z,13.45
2019-04-21T08:30:09.556Z,12.50
2019-04-21T08:31:10.302Z,12.53
2019-04-21T08:32:19.959Z,12.20
2019-04-21T08:33:37.186Z,12.53
2019-04-21T08:35:55.350Z,11.63
2019-04-21T08:36:40.495Z,12.53
2019-04-21T08:37:42.983Z,12.35
2019-04-21T08:38:53.928Z,12.43
2019-04-21T08:40:09.409Z,12.20
2019-04-21T08:41:08.150Z,13.05
2019-04-21T08:42:10.380Z,12.65
2019-04-21T08:43:27.790Z,12.53
2019-04-21T08:44:33.832Z,12.63
2019-04-21T08:45:36.109Z,12.75
2019-04-21T08:46:40.508Z,12.50
2019-04-21T08:47:47.702Z,12.53
2019-04-21T08:48:55.423Z,11.85
2019-04-21T08:50:00.426Z,12.33
2019-04-21T08:51:20.917Z,12.55
2019-04-21T08:52:25.974Z,12.45
2019-04-21T08:53:19.608Z,12.73
2019-04-21T08:55:58.003Z,12.18
2019-04-21T08:57:15.280Z,14.50
2019-04-21T08:58:41.567Z,11.75
2019-04-21T08:59:55.059Z,12.33
2019-04-21T09:01:33.036Z,11.78
2019-04-21T09:02:40.458Z,12.55
2019-04-21T09:03:58.781Z,12.23
2019-04-21T09:05:04.585Z,11.90
2019-04-21T09:06:13.758Z,12.23
2019-04-21T09:08:26.947Z,12.93
2019-04-21T09:09:35.017Z,13.13
2019-04-21T09:10:34.796Z,12.47
2019-04-21T09:11:42.198Z,12.40
2019-04-21T09:12:46.770Z,11.85
2019-04-21T09:13:54.399Z,12.18
2019-04-21T09:15:00.833Z,12.23
2019-04-21T09:16:06.321Z,12.85
2019-04-21T09:17:10.761Z,11.70
2019-04-21T09:18:18.573Z,11.55
2019-04-21T09:19:40.887Z,11.97
2019-04-21T09:20:40.211Z,12.07
2019-04-21T09:21:43.694Z,13.00
2019-04-21T09:22:47.782Z,11.85
2019-04-21T09:23:54.308Z,11.05
2019-04-21T09:24:57.704Z,12.18
2019-04-21T09:26:05.211Z,12.45
2019-04-21T09:27:08.537Z,11.18
2019-04-21T09:28:11.163Z,11.88
2019-04-21T09:29:16.057Z,11.55
2019-04-21T09:30:13.032Z,11.15
2019-04-21T09:31:23.933Z,11.15
2019-04-21T09:32:27.138Z,11.83
2019-04-21T09:33:36.453Z,11.97
2019-04-21T09:34:40.412Z,11.65
2019-04-21T09:35:50.155Z,12.10
2019-04-21T09:36:51.587Z,12.20
2019-04-21T09:37:58.884Z,11.73
2019-04-21T09:39:07.787Z,10.70
2019-04-21T09:40:06.778Z,11.05
2019-04-21T09:41:16.107Z,11.28
2019-04-21T09:42:19.714Z,11.35
2019-04-21T09:43:30.786Z,11.63
2019-04-21T09:44:36.068Z,10.88
2019-04-21T09:45:37.623Z,12.03
2019-04-21T09:46:49.852Z,10.85
2019-04-21T09:47:57.220Z,11.73
2019-04-21T09:49:00.891Z,12.63
2019-04-21T09:50:02.789Z,10.98
2019-04-21T09:51:06.860Z,11.22
2019-04-21T09:52:18.844Z,10.82
2019-04-21T09:53:26.914Z,11.53
2019-04-21T09:54:29.868Z,11.70
2019-04-21T09:55:41.557Z,11.12
2019-04-21T09:56:44.148Z,11.63
2019-04-21T09:57:48.463Z,11.78
2019-04-21T09:58:53.241Z,11.80
2019-04-21T10:00:00.906Z,10.80
2019-04-21T10:01:12.249Z,11.75
2019-04-21T10:02:14.254Z,11.53
2019-04-21T10:03:16.289Z,10.13
2019-04-21T10:04:20.825Z,10.45
2019-04-21T10:05:25.234Z,10.53
2019-04-21T10:06:30.663Z,9.63
2019-04-21T10:07:41.670Z,10.32
2019-04-21T10:08:42.889Z,9.73
2019-04-21T10:09:47.910Z,9.70
2019-04-21T10:10:54.704Z,9.65
2019-04-21T10:12:00.732Z,9.58
2019-04-21T10:13:05.284Z,9.85
2019-04-21T10:14:09.802Z,10.23
2019-04-21T10:15:14.547Z,10.80
2019-04-21T10:16:45.062Z,8.70
2019-04-21T10:17:56.122Z,10.50
2019-04-21T10:19:00.555Z,9.15
2019-04-21T10:20:07.176Z,8.43
2019-04-21T10:21:11.560Z,9.38
2019-04-21T10:22:17.035Z,9.15
2019-04-21T10:23:21.636Z,9.43
2019-04-21T10:24:26.394Z,9.95
2019-04-21T10:25:30.918Z,9.20
2019-04-21T10:26:35.647Z,8.48
2019-04-21T10:27:41.252Z,9.48
2019-04-21T10:28:46.879Z,9.70
2019-04-21T10:29:52.264Z,9.00
2019-04-21T10:30:58.550Z,9.43
2019-04-21T10:32:03.595Z,9.33
2019-04-21T10:33:08.423Z,8.83
2019-04-21T10:34:13.509Z,9.05
2019-04-21T10:35:21.174Z,9.18
2019-04-21T10:36:24.936Z,9.25
2019-04-21T10:37:44.143Z,9.28
2019-04-21T10:38:42.634Z,9.40
2019-04-21T10:39:41.975Z,10.05
2019-04-21T10:40:47.558Z,10.03
2019-04-21T10:41:53.159Z,9.43
2019-04-21T10:42:58.357Z,9.05
2019-04-21T10:44:03.143Z,10.05
2019-04-21T10:45:08.325Z,9.95
2019-04-21T10:46:12.931Z,10.15
2019-04-21T10:47:18.655Z,10.18
2019-04-21T10:48:23.096Z,9.88
2019-04-21T10:49:28.684Z,10.32
2019-04-21T10:50:34.935Z,9.80
2019-04-21T10:51:39.385Z,10.53
2019-04-21T10:53:02.901Z,9.58
2019-04-21T10:54:08.321Z,10.08
2019-04-21T10:55:31.809Z,9.35
2019-04-21T10:56:27.232Z,9.75
2019-04-21T10:57:28.437Z,10.68
2019-04-21T10:58:36.301Z,9.33
2019-04-21T10:59:46.209Z,9.85
2019-04-21T11:00:48.443Z,10.43
2019-04-21T11:01:53.095Z,9.58
2019-04-21T11:03:17.155Z,9.90
2019-04-21T11:04:32.353Z,9.65
2019-04-21T11:05:34.517Z,9.58
2019-04-21T11:06:39.053Z,9.25
2019-04-21T11:08:02.459Z,9.48
2019-04-21T11:08:57.913Z,9.58
2019-04-21T11:10:02.500Z,9.95
2019-04-21T11:11:08.005Z,9.75
2019-04-21T11:12:13.573Z,9.55
2019-04-21T11:13:18.839Z,9.63
2019-04-21T11:14:23.333Z,9.15
2019-04-21T11:15:27.793Z,8.53
2019-04-21T11:16:33.222Z,8.50
2019-04-21T11:17:40.239Z,9.25
2019-04-21T11:18:44.134Z,9.98
2019-04-21T11:19:48.917Z,8.75
2019-04-21T11:20:53.346Z,8.18
2019-04-21T11:22:01.021Z,9.33
2019-04-21T11:23:05.968Z,8.68
2019-04-21T11:24:10.535Z,8.33
2019-04-21T11:25:15.837Z,9.18
2019-04-21T11:26:20.317Z,8.28
2019-04-21T11:27:24.740Z,8.30
2019-04-21T11:28:31.185Z,8.78
2019-04-21T11:29:37.066Z,7.78
2019-04-21T11:30:42.437Z,8.25
2019-04-21T11:31:49.344Z,8.45
2019-04-21T11:32:55.170Z,8.70
2019-04-21T11:34:00.785Z,12.35
2019-04-21T11:35:07.268Z,14.45
2019-04-21T11:36:13.216Z,10.70
2019-04-21T11:37:19.927Z,12.85
2019-04-21T11:38:33.499Z,9.88
2019-04-21T11:39:46.116Z,11.78
2019-04-21T11:40:43.371Z,8.33
2019-04-21T11:41:48.013Z,10.20
2019-04-21T11:42:53.620Z,9.13
2019-04-21T11:43:59.208Z,9.90
2019-04-21T11:45:06.308Z,8.63
2019-04-21T11:46:10.921Z,9.65
2019-04-21T11:47:32.384Z,9.20
2019-04-21T11:48:36.866Z,8.90
2019-04-21T11:49:41.513Z,7.92
2019-04-21T11:50:46.694Z,7.30
2019-04-21T11:51:53.211Z,6.87
2019-04-21T11:52:59.061Z,7.97
2019-04-21T11:54:04.607Z,6.70
2019-04-21T11:55:09.215Z,7.05
2019-04-21T11:56:14.699Z,8.20
2019-04-21T11:57:24.645Z,8.83
2019-04-21T11:58:26.220Z,7.70
2019-04-21T11:59:30.793Z,7.92
2019-04-21T12:00:35.851Z,7.85
2019-04-21T12:01:41.435Z,7.85
2019-04-21T12:02:45.926Z,7.53
2019-04-21T12:03:51.624Z,7.05
2019-04-21T12:04:57.228Z,7.42
2019-04-21T12:06:01.812Z,6.75
2019-04-21T12:07:07.184Z,7.50
2019-04-21T12:08:22.951Z,6.53
2019-04-21T12:09:18.909Z,6.12
2019-04-21T12:10:23.786Z,6.78
2019-04-21T12:11:29.388Z,7.30
2019-04-21T12:12:35.014Z,7.10
2019-04-21T12:13:40.341Z,6.75
2019-04-21T12:14:45.925Z,7.17
2019-04-21T12:15:50.453Z,5.72
2019-04-21T12:16:57.195Z,6.33
2019-04-21T12:18:03.832Z,6.65
2019-04-21T12:19:09.202Z,6.67
2019-04-21T12:20:14.787Z,7.45
2019-04-21T12:21:21.146Z,6.58
2019-04-21T12:22:29.956Z,6.22
2019-04-21T12:23:32.426Z,7.08
2019-04-21T12:24:38.129Z,7.03
2019-04-21T12:25:45.287Z,6.45
2019-04-21T12:26:49.936Z,6.87
2019-04-21T12:27:54.389Z,7.28
2019-04-21T12:28:59.686Z,6.35
2019-04-21T12:30:05.865Z,6.35
2019-04-21T12:31:45.479Z,6.37
2019-04-21T12:32:58.078Z,7.85
2019-04-21T12:34:04.113Z,7.45
2019-04-21T12:35:10.048Z,7.78
2019-04-21T12:36:15.758Z,7.33
2019-04-21T12:37:20.361Z,7.70
2019-04-21T12:38:36.917Z,8.10
2019-04-21T12:39:30.969Z,6.80
2019-04-21T12:40:36.681Z,8.53
2019-04-21T12:41:42.502Z,7.17
2019-04-21T12:42:48.317Z,7.10
2019-04-21T12:43:53.028Z,7.58
2019-04-21T12:44:57.421Z,7.45
2019-04-21T12:46:02.235Z,7.92
2019-04-21T12:47:07.958Z,7.37
2019-04-21T12:48:13.844Z,6.70
2019-04-21T12:49:18.372Z,6.58
2019-04-21T12:50:23.572Z,6.83
2019-04-21T12:51:30.217Z,7.40
2019-04-21T12:52:35.701Z,6.92
2019-04-21T12:53:41.450Z,6.92
2019-04-21T12:54:45.941Z,7.05
2019-04-21T12:55:51.659Z,7.05
2019-04-21T12:56:56.319Z,7.10
2019-04-21T12:58:01.398Z,6.87
2019-04-21T12:59:05.931Z,7.28
2019-04-21T13:00:13.228Z,7.00
2019-04-21T13:01:18.838Z,7.40
2019-04-21T13:02:25.413Z,6.42
2019-04-21T13:03:34.292Z,7.17
2019-04-21T13:04:40.114Z,7.03
2019-04-21T13:05:47.446Z,6.70
2019-04-21T13:06:52.100Z,7.55
2019-04-21T13:07:59.495Z,6.62
2019-04-21T13:09:08.970Z,6.60
2019-04-21T13:10:12.714Z,6.58
2019-04-21T13:11:17.265Z,6.35
2019-04-21T13:12:22.867Z,6.92
2019-04-21T13:13:30.028Z,6.95
2019-04-21T13:14:35.775Z,6.22
2019-04-21T13:15:40.525Z,6.65
2019-04-21T13:16:45.652Z,6.15
2019-04-21T13:17:50.322Z,6.65
2019-04-21T13:18:55.369Z,6.33
2019-04-21T13:20:01.106Z,6.33
2019-04-21T13:21:07.144Z,6.20
2019-04-21T13:22:12.235Z,6.30
2019-04-21T13:23:16.837Z,6.22
2019-04-21T13:24:22.003Z,6.53
2019-04-21T13:25:27.714Z,6.50
2019-04-21T13:26:41.882Z,5.62
2019-04-21T13:27:38.759Z,6.22
2019-04-21T13:29:02.701Z,5.78
2019-04-21T13:30:28.421Z,6.22
2019-04-21T13:31:52.602Z,5.95
2019-04-21T13:33:16.155Z,6.33
2019-04-21T13:36:23.353Z,6.22
2019-04-21T13:37:49.321Z,5.53
2019-04-21T13:39:55.278Z,5.72
2019-04-21T13:41:30.833Z,5.70
2019-04-21T13:44:30.934Z,5.67
2019-04-21T13:47:38.738Z,5.55
2019-04-21T13:49:03.554Z,5.50
2019-04-21T13:50:26.999Z,4.92
2019-04-21T13:51:50.434Z,5.35
2019-04-21T13:53:14.681Z,5.15
2019-04-21T13:54:39.870Z,5.03
2019-04-21T13:56:04.718Z,5.40
2019-04-21T13:58:40.126Z,5.00
2019-04-21T13:59:57.172Z,5.22
2019-04-21T14:01:13.872Z,4.72
2019-04-21T14:02:30.867Z,5.12
2019-04-21T14:03:47.584Z,5.75
2019-04-21T14:05:06.737Z,4.87
2019-04-21T14:06:22.538Z,5.75
2019-04-21T14:07:38.973Z,5.55
2019-04-21T14:08:55.177Z,5.08
2019-04-21T14:10:12.751Z,4.67
2019-04-21T14:11:29.587Z,4.45
2019-04-21T14:12:46.720Z,4.85
2019-04-21T14:14:02.742Z,5.08
2019-04-21T14:15:20.116Z,4.70
2019-04-21T14:16:36.452Z,5.50
2019-04-21T14:17:53.105Z,5.87
2019-04-21T14:19:09.728Z,5.47
2019-04-21T14:20:27.053Z,5.35
2019-04-21T14:21:46.413Z,5.00
2019-04-21T14:23:13.255Z,5.15
2019-04-21T14:24:19.510Z,4.92
2019-04-21T14:25:35.635Z,5.58
2019-04-21T14:26:52.223Z,5.20
2019-04-21T14:28:08.367Z,5.87
2019-04-21T14:29:25.710Z,6.08
2019-04-21T14:30:41.778Z,5.40
2019-04-21T14:31:58.083Z,5.85
2019-04-21T14:33:14.211Z,5.20
2019-04-21T14:34:30.212Z,5.65
2019-04-21T14:35:47.149Z,5.45
2019-04-21T14:37:04.457Z,4.83
2019-04-21T14:38:20.616Z,5.28
2019-04-21T14:39:47.920Z,5.40
2019-04-21T14:42:42.831Z,6.37
2019-04-21T14:44:06.897Z,5.50
2019-04-21T14:45:50.517Z,5.28
2019-04-21T14:47:33.375Z,5.37
2019-04-21T14:49:17.353Z,6.10
2019-04-21T14:51:00.010Z,5.60
2019-04-21T14:54:17.280Z,5.05
2019-04-21T14:55:43.563Z,5.33
2019-04-21T15:03:25.780Z,5.45
2019-04-21T15:10:07.038Z,5.83
2019-04-21T15:14:49.876Z,6.80
2019-04-21T15:16:06.908Z,7.45
2019-04-21T15:17:24.925Z,10.75
2019-04-21T15:18:41.302Z,10.63
2019-04-21T15:21:15.332Z,9.98
2019-04-21T15:22:32.285Z,9.55
2019-04-21T15:23:48.436Z,8.93
2019-04-21T15:25:05.862Z,9.08
2019-04-21T15:26:22.122Z,9.00
2019-04-21T15:27:39.028Z,8.00
2019-04-21T15:28:55.036Z,9.70
2019-04-21T15:30:11.070Z,9.50
2019-04-21T15:31:32.035Z,9.95
2019-04-21T15:32:46.416Z,9.75
2019-04-21T15:34:03.252Z,9.43
2019-04-21T15:39:12.104Z,7.05
2019-04-21T15:40:39.878Z,6.37
2019-04-21T15:41:46.474Z,6.37
2019-04-21T15:43:02.490Z,5.53
2019-04-21T15:44:18.654Z,6.78
2019-04-21T15:45:35.134Z,6.12
2019-04-21T15:46:52.097Z,6.47
2019-04-21T15:48:09.868Z,6.30
2019-04-21T15:49:40.517Z,6.17
2019-04-21T15:50:48.093Z,6.28
2019-04-21T15:52:04.276Z,6.20
2019-04-21T15:53:21.647Z,6.55
2019-04-21T15:54:38.686Z,6.47
2019-04-21T15:55:59.223Z,6.00
2019-04-21T15:57:21.765Z,6.00
2019-04-21T16:03:20.780Z,6.35
2019-04-21T16:04:36.877Z,6.30
2019-04-21T16:05:53.692Z,5.53
2019-04-21T16:07:09.665Z,5.60
2019-04-21T16:08:27.101Z,5.85
2019-04-21T16:09:43.975Z,6.05
2019-04-21T16:11:03.965Z,6.12
2019-04-21T16:12:19.940Z,6.08
2019-04-21T16:13:37.220Z,6.20
2019-04-21T16:14:54.497Z,5.67
2019-04-21T16:16:10.607Z,6.40
2019-04-21T16:17:27.583Z,6.17
2019-04-21T16:20:02.040Z,6.33
2019-04-21T16:21:19.739Z,5.65
2019-04-21T16:22:36.836Z,5.85
2019-04-21T16:23:54.097Z,5.70
2019-04-21T16:25:10.743Z,5.45
2019-04-21T16:26:28.685Z,5.90
2019-04-21T16:27:45.482Z,5.10
2019-04-21T16:29:02.768Z,5.12
2019-04-21T16:30:19.713Z,5.65
2019-04-21T16:31:36.372Z,5.58
2019-04-21T16:32:52.306Z,5.92
2019-04-21T16:34:09.298Z,5.75
2019-04-21T16:35:26.660Z,6.17
2019-04-21T16:36:43.509Z,5.72
2019-04-21T16:38:02.431Z,4.75
2019-04-21T16:39:19.702Z,5.55
2019-04-21T16:40:46.305Z,5.05
2019-04-21T16:41:54.155Z,5.28
2019-04-21T16:43:10.153Z,5.37
2019-04-21T16:44:27.346Z,5.03
2019-04-21T16:45:44.439Z,5.33
2019-04-21T16:47:01.399Z,5.10
2019-04-21T16:48:17.447Z,5.00
2019-04-21T16:49:33.725Z,5.28
2019-04-21T16:50:50.054Z,5.67
2019-04-21T16:52:25.894Z,5.70
2019-04-21T16:55:51.169Z,4.78
2019-04-21T16:58:48.493Z,5.15
2019-04-21T17:00:10.724Z,5.42
2019-04-21T17:01:31.278Z,4.87
2019-04-21T17:03:04.284Z,4.53
2019-04-21T17:04:12.661Z,4.72
2019-04-21T17:05:30.040Z,4.50
2019-04-21T17:06:47.043Z,4.45
2019-04-21T17:08:04.149Z,4.50
2019-04-21T17:09:20.821Z,4.50
2019-04-21T17:10:38.226Z,4.15
2019-04-21T17:11:59.959Z,4.53
2019-04-21T17:13:13.951Z,4.58
2019-04-21T17:16:07.820Z,3.90
2019-04-21T17:17:29.295Z,4.10
2019-04-21T17:18:40.541Z,4.15
2019-04-21T17:19:46.974Z,4.35
2019-04-21T17:21:01.650Z,4.47
2019-04-21T17:22:19.484Z,5.00
2019-04-21T17:23:35.865Z,4.37
2019-04-21T17:24:52.660Z,3.80
2019-04-21T17:27:56.788Z,3.95
2019-04-21T17:29:12.622Z,3.67
2019-04-21T17:30:32.496Z,3.72
2019-04-21T17:31:49.846Z,4.53
2019-04-21T17:33:05.750Z,4.28
2019-04-21T17:34:24.948Z,4.58
2019-04-21T17:35:40.741Z,4.08
2019-04-21T17:36:57.250Z,4.17
2019-04-21T17:38:14.080Z,3.75
2019-04-21T17:39:31.106Z,4.30
2019-04-21T17:40:47.672Z,4.22
2019-04-21T17:42:14.145Z,4.50
2019-04-21T17:43:21.786Z,4.65
2019-04-21T17:44:39.274Z,4.35
2019-04-21T17:45:55.651Z,4.75
2019-04-21T17:47:25.605Z,4.97
2019-04-21T17:48:31.119Z,5.15
2019-04-21T17:49:50.811Z,5.37
2019-04-21T17:51:11.904Z,6.17
2019-04-21T17:55:40.609Z,6.55
2019-04-21T17:57:16.277Z,7.62
2019-04-21T17:58:27.877Z,7.75
2019-04-21T18:00:09.757Z,8.20
2019-04-21T18:02:50.212Z,9.48
2019-04-21T18:04:07.299Z,8.88
2019-04-21T18:05:22.902Z,9.25
2019-04-21T18:06:36.688Z,9.23
2019-04-21T18:07:50.481Z,10.53
2019-04-21T18:09:18.297Z,8.75
2019-04-21T18:10:27.613Z,9.93
2019-04-21T18:11:46.839Z,10.05
2019-04-21T18:12:55.356Z,8.60
2019-04-21T18:14:03.654Z,10.30
2019-04-21T18:15:37.073Z,10.55
2019-04-21T18:16:41.777Z,11.50
2019-04-21T18:17:56.574Z,12.82
2019-04-21T18:19:12.978Z,13.90
2019-04-21T18:20:32.238Z,14.00
2019-04-21T18:22:09.025Z,13.80
2019-04-21T18:23:57.348Z,15.83
2019-04-21T18:25:25.263Z,14.53
2019-04-21T18:26:41.769Z,13.58
2019-04-21T18:27:47.571Z,14.40
2019-04-21T18:29:03.628Z,14.00
2019-04-21T18:30:20.234Z,14.20
2019-04-21T18:31:40.666Z,13.15
2019-04-21T18:32:56.997Z,13.68
2019-04-21T18:38:08.019Z,14.73
2019-04-21T18:39:52.500Z,13.98
2019-04-21T18:45:34.328Z,13.48
2019-04-21T18:47:01.297Z,14.58
2019-04-21T18:48:31.546Z,14.25
2019-04-21T18:51:54.255Z,16.90
2019-04-21T18:53:23.884Z,17.02
2019-04-21T18:56:08.293Z,15.85
2019-04-21T18:57:39.323Z,14.58
2019-04-21T19:00:35.142Z,13.30
2019-04-21T19:01:54.473Z,11.88
2019-04-21T19:03:09.957Z,11.15
2019-04-21T19:04:29.185Z,10.98
2019-04-21T19:05:47.861Z,11.12
2019-04-21T19:07:18.111Z,9.95
2019-04-21T19:08:38.784Z,11.25
2019-04-21T19:11:13.500Z,11.18
2019-04-21T19:14:19.660Z,13.08
2019-04-21T19:15:20.293Z,11.88
2019-04-21T19:16:53.981Z,11.83
2019-04-21T19:18:34.041Z,12.15
2019-04-21T19:20:39.349Z,13.00
2019-04-21T19:22:00.150Z,13.22
2019-04-21T19:23:13.860Z,15.53
2019-04-21T19:24:48.915Z,13.93
2019-04-21T19:26:05.259Z,16.20
2019-04-21T19:27:12.067Z,16.80